Terminal Aerodrome Forecast
Issued by NWS

Home | Current Version | Previous Version | Text Only | Print | Product List | Glossary On
Versions: 1 2 3 4 5 6 7 8 9 10 11 12 13 14 15 16
000
FTUS43 KDMX 252339
TAFMCW
TAF
KMCW 252339Z 2600/2624 01010KT P6SM VCSH OVC070
     FM260200 03008KT P6SM -SHRA OVC035
     FM260500 34009KT 5SM -SHRA OVC016
     FM260800 32009KT P6SM VCSH OVC005
     FM261500 32014G21KT P6SM OVC006
     FM261800 32013G20KT P6SM OVC011=

USA.gov is the U.S. government's official web portal to all federal, state and local government web resources and services.